sensor_id;sensor_type;location;lat;lon;timestamp;P1;durP1;ratioP1;P2;durP2;ratioP2
61460;SDS011;47325;50.506;4.472;2023-08-21T00:02:02;2.20;;;0.90;;
61460;SDS011;47325;50.506;4.472;2023-08-21T00:07:46;3.40;;;1.20;;
61460;SDS011;47325;50.506;4.472;2023-08-21T00:13:31;3.00;;;1.00;;
61460;SDS011;47325;50.506;4.472;2023-08-21T00:19:15;3.10;;;1.00;;
61460;SDS011;47325;50.506;4.472;2023-08-21T00:25:00;1.90;;;1.00;;
61460;SDS011;47325;50.506;4.472;2023-08-21T00:30:44;2.40;;;1.10;;
61460;SDS011;47325;50.506;4.472;2023-08-21T00:36:29;2.20;;;1.00;;
61460;SDS011;47325;50.506;4.472;2023-08-21T00:42:13;2.60;;;1.20;;
61460;SDS011;47325;50.506;4.472;2023-08-21T00:47:58;2.80;;;1.00;;
61460;SDS011;47325;50.506;4.472;2023-08-21T00:53:42;2.00;;;1.10;;
61460;SDS011;47325;50.506;4.472;2023-08-21T00:59:27;2.10;;;1.00;;
61460;SDS011;47325;50.506;4.472;2023-08-21T01:05:12;2.90;;;1.10;;
61460;SDS011;47325;50.506;4.472;2023-08-21T01:10:58;3.50;;;1.10;;
61460;SDS011;47325;50.506;4.472;2023-08-21T01:16:46;2.50;;;1.00;;
61460;SDS011;47325;50.506;4.472;2023-08-21T01:22:34;4.20;;;1.30;;
61460;SDS011;47325;50.506;4.472;2023-08-21T01:28:20;3.60;;;1.10;;
61460;SDS011;47325;50.506;4.472;2023-08-21T01:34:06;2.30;;;1.10;;
61460;SDS011;47325;50.506;4.472;2023-08-21T01:39:54;2.40;;;1.10;;
61460;SDS011;47325;50.506;4.472;2023-08-21T01:45:42;3.00;;;1.10;;
61460;SDS011;47325;50.506;4.472;2023-08-21T01:51:27;2.80;;;1.10;;
61460;SDS011;47325;50.506;4.472;2023-08-21T01:57:11;2.60;;;1.30;;
61460;SDS011;47325;50.506;4.472;2023-08-21T02:02:56;2.80;;;1.00;;
61460;SDS011;47325;50.506;4.472;2023-08-21T02:08:41;2.80;;;1.00;;
61460;SDS011;47325;50.506;4.472;2023-08-21T02:14:25;3.40;;;1.20;;
61460;SDS011;47325;50.506;4.472;2023-08-21T02:20:10;3.90;;;1.30;;
61460;SDS011;47325;50.506;4.472;2023-08-21T02:25:55;4.60;;;1.20;;
61460;SDS011;47325;50.506;4.472;2023-08-21T02:31:39;2.80;;;1.10;;
61460;SDS011;47325;50.506;4.472;2023-08-21T02:37:23;3.10;;;1.20;;
61460;SDS011;47325;50.506;4.472;2023-08-21T02:43:08;1.80;;;1.00;;
61460;SDS011;47325;50.506;4.472;2023-08-21T02:48:52;2.90;;;1.10;;
61460;SDS011;47325;50.506;4.472;2023-08-21T02:54:37;2.60;;;1.00;;
61460;SDS011;47325;50.506;4.472;2023-08-21T03:00:21;3.50;;;1.10;;
61460;SDS011;47325;50.506;4.472;2023-08-21T03:06:06;3.10;;;1.10;;
61460;SDS011;47325;50.506;4.472;2023-08-21T03:11:50;2.50;;;1.00;;
61460;SDS011;47325;50.506;4.472;2023-08-21T03:17:35;3.60;;;1.20;;
61460;SDS011;47325;50.506;4.472;2023-08-21T03:23:19;3.60;;;1.10;;
61460;SDS011;47325;50.506;4.472;2023-08-21T03:29:04;2.90;;;1.30;;
61460;SDS011;47325;50.506;4.472;2023-08-21T03:34:48;3.40;;;1.10;;
61460;SDS011;47325;50.506;4.472;2023-08-21T03:40:33;4.50;;;1.50;;
61460;SDS011;47325;50.506;4.472;2023-08-21T03:46:17;3.00;;;1.10;;
61460;SDS011;47325;50.506;4.472;2023-08-21T03:52:02;2.40;;;1.30;;
61460;SDS011;47325;50.506;4.472;2023-08-21T03:57:46;4.10;;;1.40;;
61460;SDS011;47325;50.506;4.472;2023-08-21T04:03:31;3.10;;;1.20;;
61460;SDS011;47325;50.506;4.472;2023-08-21T04:09:15;2.80;;;1.40;;
61460;SDS011;47325;50.506;4.472;2023-08-21T04:15:00;2.60;;;1.00;;
61460;SDS011;47325;50.506;4.472;2023-08-21T04:20:44;2.90;;;1.20;;
61460;SDS011;47325;50.506;4.472;2023-08-21T04:26:28;3.20;;;1.10;;
61460;SDS011;47325;50.506;4.472;2023-08-21T04:32:12;2.10;;;1.30;;
61460;SDS011;47325;50.506;4.472;2023-08-21T04:37:57;3.10;;;1.20;;
61460;SDS011;47325;50.506;4.472;2023-08-21T04:43:41;2.20;;;1.10;;
61460;SDS011;47325;50.506;4.472;2023-08-21T04:49:25;3.10;;;1.20;;
61460;SDS011;47325;50.506;4.472;2023-08-21T04:55:10;2.10;;;1.30;;
61460;SDS011;47325;50.506;4.472;2023-08-21T05:00:54;2.10;;;1.10;;
61460;SDS011;47325;50.506;4.472;2023-08-21T05:06:39;3.70;;;1.70;;
61460;SDS011;47325;50.506;4.472;2023-08-21T05:12:23;7.50;;;2.40;;
61460;SDS011;47325;50.506;4.472;2023-08-21T05:18:07;4.90;;;2.10;;
61460;SDS011;47325;50.506;4.472;2023-08-21T05:23:52;6.00;;;2.50;;
61460;SDS011;47325;50.506;4.472;2023-08-21T05:29:37;6.50;;;2.60;;
61460;SDS011;47325;50.506;4.472;2023-08-21T05:35:21;5.10;;;2.10;;
61460;SDS011;47325;50.506;4.472;2023-08-21T05:41:06;7.00;;;2.20;;
61460;SDS011;47325;50.506;4.472;2023-08-21T05:46:50;7.70;;;2.50;;
61460;SDS011;47325;50.506;4.472;2023-08-21T05:52:35;6.70;;;2.30;;
61460;SDS011;47325;50.506;4.472;2023-08-21T05:58:26;7.10;;;2.30;;
61460;SDS011;47325;50.506;4.472;2023-08-21T06:04:10;7.80;;;2.30;;
61460;SDS011;47325;50.506;4.472;2023-08-21T06:09:56;7.20;;;2.00;;
61460;SDS011;47325;50.506;4.472;2023-08-21T06:15:42;6.30;;;2.10;;
61460;SDS011;47325;50.506;4.472;2023-08-21T06:21:27;7.30;;;2.00;;
61460;SDS011;47325;50.506;4.472;2023-08-21T06:27:11;6.40;;;2.00;;
61460;SDS011;47325;50.506;4.472;2023-08-21T06:32:55;6.60;;;1.60;;
61460;SDS011;47325;50.506;4.472;2023-08-21T06:38:40;5.20;;;1.60;;
61460;SDS011;47325;50.506;4.472;2023-08-21T06:44:26;5.80;;;1.40;;
61460;SDS011;47325;50.506;4.472;2023-08-21T06:50:10;10.30;;;1.90;;
61460;SDS011;47325;50.506;4.472;2023-08-21T06:55:54;6.00;;;1.80;;
61460;SDS011;47325;50.506;4.472;2023-08-21T07:01:38;7.90;;;1.60;;
61460;SDS011;47325;50.506;4.472;2023-08-21T07:07:23;7.60;;;1.60;;
61460;SDS011;47325;50.506;4.472;2023-08-21T07:13:07;5.20;;;1.50;;
61460;SDS011;47325;50.506;4.472;2023-08-21T07:18:52;4.80;;;1.50;;
61460;SDS011;47325;50.506;4.472;2023-08-21T07:24:36;6.40;;;1.50;;
61460;SDS011;47325;50.506;4.472;2023-08-21T07:30:21;8.40;;;1.80;;
61460;SDS011;47325;50.506;4.472;2023-08-21T07:36:06;4.50;;;1.50;;
61460;SDS011;47325;50.506;4.472;2023-08-21T07:41:50;7.00;;;1.60;;
61460;SDS011;47325;50.506;4.472;2023-08-21T07:47:34;4.80;;;1.40;;
61460;SDS011;47325;50.506;4.472;2023-08-21T07:53:20;5.70;;;1.60;;
61460;SDS011;47325;50.506;4.472;2023-08-21T07:59:05;5.30;;;1.60;;
61460;SDS011;47325;50.506;4.472;2023-08-21T08:04:49;7.20;;;2.00;;
61460;SDS011;47325;50.506;4.472;2023-08-21T08:10:34;4.10;;;1.60;;
61460;SDS011;47325;50.506;4.472;2023-08-21T08:16:20;6.30;;;1.50;;
61460;SDS011;47325;50.506;4.472;2023-08-21T08:22:05;6.80;;;1.60;;
61460;SDS011;47325;50.506;4.472;2023-08-21T08:27:51;5.50;;;1.40;;
61460;SDS011;47325;50.506;4.472;2023-08-21T08:33:35;4.40;;;1.40;;
61460;SDS011;47325;50.506;4.472;2023-08-21T08:39:19;5.60;;;1.50;;
61460;SDS011;47325;50.506;4.472;2023-08-21T08:45:04;7.00;;;1.40;;
61460;SDS011;47325;50.506;4.472;2023-08-21T08:50:49;5.70;;;1.50;;
61460;SDS011;47325;50.506;4.472;2023-08-21T08:56:38;6.00;;;1.40;;
61460;SDS011;47325;50.506;4.472;2023-08-21T09:02:22;4.70;;;1.70;;
61460;SDS011;47325;50.506;4.472;2023-08-21T09:08:09;7.30;;;1.70;;
61460;SDS011;47325;50.506;4.472;2023-08-21T09:13:54;5.30;;;1.50;;
61460;SDS011;47325;50.506;4.472;2023-08-21T09:19:39;4.80;;;1.50;;
61460;SDS011;47325;50.506;4.472;2023-08-21T09:25:23;8.60;;;1.90;;
61460;SDS011;47325;50.506;4.472;2023-08-21T09:31:10;5.30;;;1.60;;
61460;SDS011;47325;50.506;4.472;2023-08-21T09:36:57;7.00;;;1.60;;
61460;SDS011;47325;50.506;4.472;2023-08-21T09:42:42;4.70;;;1.30;;
61460;SDS011;47325;50.506;4.472;2023-08-21T09:48:27;5.70;;;1.50;;
61460;SDS011;47325;50.506;4.472;2023-08-21T09:54:11;6.60;;;1.50;;
61460;SDS011;47325;50.506;4.472;2023-08-21T09:59:55;4.60;;;1.60;;
61460;SDS011;47325;50.506;4.472;2023-08-21T10:05:40;5.20;;;1.40;;
61460;SDS011;47325;50.506;4.472;2023-08-21T10:11:25;5.10;;;1.30;;
61460;SDS011;47325;50.506;4.472;2023-08-21T10:17:10;5.70;;;1.70;;
61460;SDS011;47325;50.506;4.472;2023-08-21T10:23:00;5.90;;;1.30;;
61460;SDS011;47325;50.506;4.472;2023-08-21T10:28:45;4.30;;;1.40;;
61460;SDS011;47325;50.506;4.472;2023-08-21T10:34:35;4.10;;;1.30;;
61460;SDS011;47325;50.506;4.472;2023-08-21T10:40:25;3.00;;;1.30;;
61460;SDS011;47325;50.506;4.472;2023-08-21T10:46:09;7.00;;;2.20;;
61460;SDS011;47325;50.506;4.472;2023-08-21T10:51:55;7.40;;;1.60;;
61460;SDS011;47325;50.506;4.472;2023-08-21T10:57:39;5.90;;;1.60;;
61460;SDS011;47325;50.506;4.472;2023-08-21T11:03:24;4.80;;;1.40;;
61460;SDS011;47325;50.506;4.472;2023-08-21T11:09:09;4.40;;;1.20;;
61460;SDS011;47325;50.506;4.472;2023-08-21T11:14:56;4.70;;;1.40;;
61460;SDS011;47325;50.506;4.472;2023-08-21T11:20:41;7.30;;;1.40;;
61460;SDS011;47325;50.506;4.472;2023-08-21T11:26:29;4.30;;;1.20;;
61460;SDS011;47325;50.506;4.472;2023-08-21T11:32:15;4.60;;;1.30;;
61460;SDS011;47325;50.506;4.472;2023-08-21T11:38:00;3.10;;;1.20;;
61460;SDS011;47325;50.506;4.472;2023-08-21T11:43:47;4.70;;;1.30;;
61460;SDS011;47325;50.506;4.472;2023-08-21T11:49:31;6.10;;;1.60;;
61460;SDS011;47325;50.506;4.472;2023-08-21T11:55:15;4.50;;;1.40;;
61460;SDS011;47325;50.506;4.472;2023-08-21T12:01:07;3.40;;;1.30;;
61460;SDS011;47325;50.506;4.472;2023-08-21T12:06:54;4.10;;;1.30;;
61460;SDS011;47325;50.506;4.472;2023-08-21T12:12:39;5.10;;;1.40;;
61460;SDS011;47325;50.506;4.472;2023-08-21T12:18:23;5.80;;;1.30;;
61460;SDS011;47325;50.506;4.472;2023-08-21T12:24:08;3.80;;;1.20;;
61460;SDS011;47325;50.506;4.472;2023-08-21T12:29:52;3.70;;;1.50;;
61460;SDS011;47325;50.506;4.472;2023-08-21T12:35:36;4.10;;;1.10;;
61460;SDS011;47325;50.506;4.472;2023-08-21T12:41:21;2.60;;;1.00;;
61460;SDS011;47325;50.506;4.472;2023-08-21T12:47:05;5.10;;;1.40;;
61460;SDS011;47325;50.506;4.472;2023-08-21T12:52:50;4.30;;;1.20;;
61460;SDS011;47325;50.506;4.472;2023-08-21T12:58:34;6.00;;;1.20;;
61460;SDS011;47325;50.506;4.472;2023-08-21T13:04:18;4.60;;;1.30;;
61460;SDS011;47325;50.506;4.472;2023-08-21T13:10:04;4.90;;;1.20;;
61460;SDS011;47325;50.506;4.472;2023-08-21T13:15:49;3.20;;;1.20;;
61460;SDS011;47325;50.506;4.472;2023-08-21T13:21:34;3.50;;;1.10;;
61460;SDS011;47325;50.506;4.472;2023-08-21T13:27:18;7.40;;;1.40;;
61460;SDS011;47325;50.506;4.472;2023-08-21T13:33:03;3.70;;;1.20;;
61460;SDS011;47325;50.506;4.472;2023-08-21T13:38:49;2.60;;;0.90;;
61460;SDS011;47325;50.506;4.472;2023-08-21T13:44:33;4.20;;;1.10;;
61460;SDS011;47325;50.506;4.472;2023-08-21T13:50:17;3.60;;;1.10;;
61460;SDS011;47325;50.506;4.472;2023-08-21T13:56:03;4.90;;;1.10;;
61460;SDS011;47325;50.506;4.472;2023-08-21T14:01:48;2.50;;;0.90;;
61460;SDS011;47325;50.506;4.472;2023-08-21T14:07:33;3.00;;;0.90;;
61460;SDS011;47325;50.506;4.472;2023-08-21T14:13:18;3.60;;;1.10;;
61460;SDS011;47325;50.506;4.472;2023-08-21T14:19:03;4.20;;;1.20;;
61460;SDS011;47325;50.506;4.472;2023-08-21T14:24:50;2.90;;;1.20;;
61460;SDS011;47325;50.506;4.472;2023-08-21T14:30:34;3.20;;;1.20;;
61460;SDS011;47325;50.506;4.472;2023-08-21T14:36:19;4.20;;;1.10;;
61460;SDS011;47325;50.506;4.472;2023-08-21T14:42:03;3.80;;;1.10;;
61460;SDS011;47325;50.506;4.472;2023-08-21T14:47:48;3.40;;;1.10;;
61460;SDS011;47325;50.506;4.472;2023-08-21T14:53:32;3.80;;;1.30;;
61460;SDS011;47325;50.506;4.472;2023-08-21T14:59:17;4.20;;;1.20;;
61460;SDS011;47325;50.506;4.472;2023-08-21T15:05:01;2.90;;;1.10;;
61460;SDS011;47325;50.506;4.472;2023-08-21T15:10:46;4.60;;;1.30;;
61460;SDS011;47325;50.506;4.472;2023-08-21T15:16:30;4.30;;;1.30;;
61460;SDS011;47325;50.506;4.472;2023-08-21T15:22:16;4.30;;;1.30;;
61460;SDS011;47325;50.506;4.472;2023-08-21T15:28:01;7.00;;;2.20;;
61460;SDS011;47325;50.506;4.472;2023-08-21T15:33:46;8.50;;;3.20;;
61460;SDS011;47325;50.506;4.472;2023-08-21T15:39:31;4.80;;;1.40;;
61460;SDS011;47325;50.506;4.472;2023-08-21T15:45:15;3.70;;;1.10;;
61460;SDS011;47325;50.506;4.472;2023-08-21T15:50:59;4.40;;;1.20;;
61460;SDS011;47325;50.506;4.472;2023-08-21T15:56:44;3.60;;;1.10;;
61460;SDS011;47325;50.506;4.472;2023-08-21T16:02:28;4.20;;;1.10;;
61460;SDS011;47325;50.506;4.472;2023-08-21T16:08:13;2.90;;;1.10;;
61460;SDS011;47325;50.506;4.472;2023-08-21T16:13:58;2.60;;;1.10;;
61460;SDS011;47325;50.506;4.472;2023-08-21T16:19:42;2.80;;;1.10;;
61460;SDS011;47325;50.506;4.472;2023-08-21T16:25:27;5.40;;;1.30;;
61460;SDS011;47325;50.506;4.472;2023-08-21T16:31:13;2.80;;;1.10;;
61460;SDS011;47325;50.506;4.472;2023-08-21T16:36:58;3.90;;;1.30;;
61460;SDS011;47325;50.506;4.472;2023-08-21T16:42:42;5.80;;;1.40;;
61460;SDS011;47325;50.506;4.472;2023-08-21T16:48:27;6.40;;;1.30;;
61460;SDS011;47325;50.506;4.472;2023-08-21T16:54:12;4.30;;;1.20;;
61460;SDS011;47325;50.506;4.472;2023-08-21T16:59:57;4.10;;;1.10;;
61460;SDS011;47325;50.506;4.472;2023-08-21T17:05:42;3.40;;;1.10;;
61460;SDS011;47325;50.506;4.472;2023-08-21T17:11:28;4.50;;;1.00;;
61460;SDS011;47325;50.506;4.472;2023-08-21T17:17:13;5.50;;;1.60;;
61460;SDS011;47325;50.506;4.472;2023-08-21T17:22:58;4.10;;;1.40;;
61460;SDS011;47325;50.506;4.472;2023-08-21T17:28:42;4.90;;;1.10;;
61460;SDS011;47325;50.506;4.472;2023-08-21T17:34:28;3.80;;;1.30;;
61460;SDS011;47325;50.506;4.472;2023-08-21T17:40:14;4.60;;;1.30;;
61460;SDS011;47325;50.506;4.472;2023-08-21T17:45:59;5.20;;;1.40;;
61460;SDS011;47325;50.506;4.472;2023-08-21T17:51:49;3.60;;;1.30;;
61460;SDS011;47325;50.506;4.472;2023-08-21T17:57:34;5.20;;;1.10;;
61460;SDS011;47325;50.506;4.472;2023-08-21T18:03:22;4.00;;;1.10;;
61460;SDS011;47325;50.506;4.472;2023-08-21T18:09:08;3.40;;;1.30;;
61460;SDS011;47325;50.506;4.472;2023-08-21T18:14:53;4.60;;;1.30;;
61460;SDS011;47325;50.506;4.472;2023-08-21T18:20:50;5.40;;;1.30;;
61460;SDS011;47325;50.506;4.472;2023-08-21T18:26:35;5.00;;;1.20;;
61460;SDS011;47325;50.506;4.472;2023-08-21T18:32:19;4.40;;;1.10;;
61460;SDS011;47325;50.506;4.472;2023-08-21T18:38:04;4.40;;;1.50;;
61460;SDS011;47325;50.506;4.472;2023-08-21T18:43:49;6.00;;;1.60;;
61460;SDS011;47325;50.506;4.472;2023-08-21T18:49:33;4.10;;;1.50;;
61460;SDS011;47325;50.506;4.472;2023-08-21T18:55:18;2.50;;;1.30;;
61460;SDS011;47325;50.506;4.472;2023-08-21T19:01:02;5.00;;;1.50;;
61460;SDS011;47325;50.506;4.472;2023-08-21T19:06:49;7.50;;;1.70;;
61460;SDS011;47325;50.506;4.472;2023-08-21T19:12:48;3.50;;;1.70;;
61460;SDS011;47325;50.506;4.472;2023-08-21T19:24:16;4.50;;;1.80;;
61460;SDS011;47325;50.506;4.472;2023-08-21T19:30:02;3.30;;;1.60;;
61460;SDS011;47325;50.506;4.472;2023-08-21T19:35:50;4.00;;;1.90;;
61460;SDS011;47325;50.506;4.472;2023-08-21T19:41:35;4.50;;;2.10;;
61460;SDS011;47325;50.506;4.472;2023-08-21T19:47:19;6.00;;;2.20;;
61460;SDS011;47325;50.506;4.472;2023-08-21T19:53:03;10.40;;;2.90;;
61460;SDS011;47325;50.506;4.472;2023-08-21T19:58:48;9.30;;;3.20;;
61460;SDS011;47325;50.506;4.472;2023-08-21T20:04:33;10.10;;;3.80;;
61460;SDS011;47325;50.506;4.472;2023-08-21T20:10:17;8.50;;;2.90;;
61460;SDS011;47325;50.506;4.472;2023-08-21T20:16:02;7.10;;;2.80;;
61460;SDS011;47325;50.506;4.472;2023-08-21T20:21:46;8.80;;;2.70;;
61460;SDS011;47325;50.506;4.472;2023-08-21T20:27:31;6.60;;;2.70;;
61460;SDS011;47325;50.506;4.472;2023-08-21T20:33:17;8.60;;;2.50;;
61460;SDS011;47325;50.506;4.472;2023-08-21T20:39:01;9.10;;;2.40;;
61460;SDS011;47325;50.506;4.472;2023-08-21T20:44:46;7.60;;;2.70;;
61460;SDS011;47325;50.506;4.472;2023-08-21T20:50:32;6.00;;;2.40;;
61460;SDS011;47325;50.506;4.472;2023-08-21T20:56:16;5.60;;;2.30;;
61460;SDS011;47325;50.506;4.472;2023-08-21T21:02:05;4.80;;;2.30;;
61460;SDS011;47325;50.506;4.472;2023-08-21T21:07:49;6.20;;;2.30;;
61460;SDS011;47325;50.506;4.472;2023-08-21T21:13:33;5.10;;;2.20;;
61460;SDS011;47325;50.506;4.472;2023-08-21T21:19:18;7.40;;;2.50;;
61460;SDS011;47325;50.506;4.472;2023-08-21T21:25:02;5.50;;;2.20;;
61460;SDS011;47325;50.506;4.472;2023-08-21T21:30:46;3.60;;;1.90;;
61460;SDS011;47325;50.506;4.472;2023-08-21T21:36:31;3.70;;;1.90;;
61460;SDS011;47325;50.506;4.472;2023-08-21T21:42:15;5.00;;;2.10;;
61460;SDS011;47325;50.506;4.472;2023-08-21T21:48:00;5.00;;;2.20;;
61460;SDS011;47325;50.506;4.472;2023-08-21T21:53:44;4.70;;;2.00;;
61460;SDS011;47325;50.506;4.472;2023-08-21T21:59:28;3.10;;;1.80;;
61460;SDS011;47325;50.506;4.472;2023-08-21T22:05:13;5.30;;;1.90;;
61460;SDS011;47325;50.506;4.472;2023-08-21T22:10:57;3.00;;;1.60;;
61460;SDS011;47325;50.506;4.472;2023-08-21T22:16:46;3.40;;;1.70;;
61460;SDS011;47325;50.506;4.472;2023-08-21T22:22:31;3.40;;;1.50;;
61460;SDS011;47325;50.506;4.472;2023-08-21T22:28:16;5.10;;;1.90;;
61460;SDS011;47325;50.506;4.472;2023-08-21T22:34:00;3.70;;;1.50;;
61460;SDS011;47325;50.506;4.472;2023-08-21T22:39:45;3.50;;;1.80;;
61460;SDS011;47325;50.506;4.472;2023-08-21T22:45:29;3.70;;;1.70;;
61460;SDS011;47325;50.506;4.472;2023-08-21T22:51:14;2.80;;;1.60;;
61460;SDS011;47325;50.506;4.472;2023-08-21T22:56:58;4.60;;;1.60;;
61460;SDS011;47325;50.506;4.472;2023-08-21T23:02:42;3.70;;;1.70;;
61460;SDS011;47325;50.506;4.472;2023-08-21T23:08:27;3.40;;;1.50;;
61460;SDS011;47325;50.506;4.472;2023-08-21T23:14:11;3.20;;;1.40;;
61460;SDS011;47325;50.506;4.472;2023-08-21T23:19:56;4.50;;;1.90;;
61460;SDS011;47325;50.506;4.472;2023-08-21T23:25:40;2.70;;;1.50;;
61460;SDS011;47325;50.506;4.472;2023-08-21T23:31:24;3.30;;;1.70;;
61460;SDS011;47325;50.506;4.472;2023-08-21T23:37:14;2.60;;;1.30;;
61460;SDS011;47325;50.506;4.472;2023-08-21T23:42:59;2.50;;;1.50;;
61460;SDS011;47325;50.506;4.472;2023-08-21T23:48:43;3.50;;;1.70;;
61460;SDS011;47325;50.506;4.472;2023-08-21T23:54:28;4.00;;;1.50;;
